createdAt,value
2018-09-14T00:01:37.043Z,13.60
2018-09-14T00:04:11.372Z,13.60
2018-09-14T00:06:45.772Z,13.50
2018-09-14T00:09:20.052Z,13.50
2018-09-14T00:11:54.360Z,13.40
2018-09-14T00:14:28.691Z,13.40
2018-09-14T00:17:03.062Z,13.40
2018-09-14T00:19:37.350Z,13.20
2018-09-14T00:22:11.688Z,13.20
2018-09-14T00:24:46.092Z,13.00
2018-09-14T00:27:20.428Z,12.90
2018-09-14T00:29:54.764Z,12.90
2018-09-14T00:32:29.086Z,13.10
2018-09-14T00:35:03.387Z,13.10
2018-09-14T00:37:37.716Z,13.00
2018-09-14T00:40:12.060Z,12.90
2018-09-14T00:42:46.404Z,12.90
2018-09-14T00:45:20.840Z,12.70
2018-09-14T00:47:55.210Z,12.60
2018-09-14T00:50:29.476Z,12.90
2018-09-14T00:53:03.801Z,12.70
2018-09-14T00:55:38.080Z,12.70
2018-09-14T00:58:12.440Z,12.60
2018-09-14T01:00:46.738Z,12.80
2018-09-14T01:03:21.320Z,12.70
2018-09-14T01:05:55.738Z,12.40
2018-09-14T01:08:30.036Z,12.30
2018-09-14T01:11:04.371Z,12.40
2018-09-14T01:13:38.524Z,12.20
2018-09-14T01:16:12.863Z,12.20
2018-09-14T01:18:47.259Z,12.10
2018-09-14T01:21:21.440Z,12.40
2018-09-14T01:23:55.923Z,12.40
2018-09-14T01:26:30.255Z,12.40
2018-09-14T01:29:04.651Z,12.20
2018-09-14T01:31:39.124Z,12.30
2018-09-14T01:34:13.512Z,12.30
2018-09-14T01:36:47.703Z,12.30
2018-09-14T01:39:21.884Z,12.10
2018-09-14T01:41:56.271Z,12.00
2018-09-14T01:44:30.487Z,11.90
2018-09-14T01:47:05.660Z,12.10
2018-09-14T01:49:39.978Z,12.20
2018-09-14T01:52:14.243Z,12.20
2018-09-14T01:54:48.695Z,12.30
2018-09-14T01:57:23.170Z,12.30
2018-09-14T01:59:57.567Z,12.30
2018-09-14T02:02:31.841Z,12.20
2018-09-14T02:05:06.072Z,12.00
2018-09-14T02:07:40.652Z,11.80
2018-09-14T02:10:20.376Z,11.90
2018-09-14T02:12:54.691Z,12.00
2018-09-14T02:15:29.145Z,12.00
2018-09-14T02:18:03.475Z,12.00
2018-09-14T02:20:37.836Z,11.80
2018-09-14T02:23:12.260Z,11.70
2018-09-14T02:25:46.449Z,11.80
2018-09-14T02:28:20.792Z,12.00
2018-09-14T02:30:55.066Z,11.90
2018-09-14T02:33:29.344Z,11.70
2018-09-14T02:36:03.952Z,11.90
2018-09-14T02:38:38.331Z,11.90
2018-09-14T02:41:12.656Z,11.80
2018-09-14T02:43:47.037Z,11.90
2018-09-14T02:46:21.199Z,11.70
2018-09-14T02:48:55.561Z,11.40
2018-09-14T02:51:29.791Z,11.40
2018-09-14T02:54:04.056Z,11.40
2018-09-14T02:56:38.395Z,11.30
2018-09-14T02:59:12.788Z,11.20
2018-09-14T03:01:47.096Z,11.20
2018-09-14T03:04:21.448Z,11.20
2018-09-14T03:06:55.782Z,11.20
2018-09-14T03:09:30.096Z,11.00
2018-09-14T03:12:04.392Z,11.10
2018-09-14T03:14:38.904Z,11.10
2018-09-14T03:17:13.246Z,11.20
2018-09-14T03:19:47.624Z,11.40
2018-09-14T03:22:21.988Z,11.50
2018-09-14T03:24:56.292Z,11.50
2018-09-14T03:27:30.599Z,11.50
2018-09-14T03:30:05.116Z,11.60
2018-09-14T03:32:39.332Z,11.50
2018-09-14T03:35:13.532Z,11.50
2018-09-14T03:37:47.830Z,11.60
2018-09-14T03:40:22.164Z,12.90
2018-09-14T03:42:56.388Z,13.80
2018-09-14T03:45:30.710Z,14.40
2018-09-14T03:48:05.147Z,14.80
2018-09-14T03:50:39.440Z,15.20
2018-09-14T03:53:13.760Z,15.50
2018-09-14T03:55:47.973Z,15.70
2018-09-14T03:58:22.329Z,15.90
2018-09-14T04:00:56.576Z,16.10
2018-09-14T04:03:30.909Z,16.30
2018-09-14T04:06:05.307Z,16.40
2018-09-14T04:08:39.471Z,16.50
2018-09-14T04:11:13.833Z,16.60
2018-09-14T04:13:48.000Z,16.70
2018-09-14T04:16:22.402Z,16.80
2018-09-14T04:19:00.571Z,16.90
2018-09-14T04:21:36.130Z,17.00
2018-09-14T04:24:10.488Z,17.10
2018-09-14T04:26:44.728Z,17.10
2018-09-14T04:29:18.929Z,17.20
2018-09-14T04:31:53.328Z,17.10
2018-09-14T04:34:27.564Z,17.10
2018-09-14T04:37:01.776Z,17.20
2018-09-14T04:39:36.075Z,17.40
2018-09-14T04:42:10.491Z,17.30
2018-09-14T04:44:44.948Z,17.40
2018-09-14T04:47:19.216Z,17.40
2018-09-14T04:49:53.508Z,17.50
2018-09-14T04:52:27.837Z,17.60
2018-09-14T04:55:02.155Z,17.60
2018-09-14T04:57:36.579Z,17.60
2018-09-14T05:00:10.677Z,17.50
2018-09-14T05:02:45.012Z,17.00
2018-09-14T05:05:19.338Z,17.30
2018-09-14T05:07:53.572Z,17.50
2018-09-14T05:10:27.892Z,17.50
2018-09-14T05:13:02.179Z,16.10
2018-09-14T05:15:36.460Z,14.90
2018-09-14T05:18:10.844Z,14.80
2018-09-14T05:20:45.256Z,15.10
2018-09-14T05:23:19.771Z,16.00
2018-09-14T05:25:53.972Z,15.50
2018-09-14T05:28:28.252Z,14.30
2018-09-14T05:31:02.600Z,13.90
2018-09-14T05:33:36.956Z,13.80
2018-09-14T05:36:11.155Z,12.80
2018-09-14T05:38:45.528Z,12.00
2018-09-14T05:41:19.804Z,12.10
2018-09-14T05:43:54.021Z,12.00
2018-09-14T05:46:28.327Z,11.90
2018-09-14T05:49:02.647Z,11.60
2018-09-14T05:51:36.992Z,11.40
2018-09-14T05:54:11.249Z,11.30
2018-09-14T05:56:45.568Z,11.20
2018-09-14T05:59:19.770Z,11.10
2018-09-14T06:01:54.081Z,11.00
2018-09-14T06:04:28.392Z,11.10
2018-09-14T06:07:02.714Z,11.10
2018-09-14T06:09:36.868Z,11.10
2018-09-14T06:12:11.317Z,11.10
2018-09-14T06:14:45.608Z,11.10
2018-09-14T06:17:19.751Z,11.50
2018-09-14T06:19:54.464Z,11.70
2018-09-14T06:22:28.685Z,11.60
2018-09-14T06:25:03.046Z,11.50
2018-09-14T06:27:37.356Z,11.40
2018-09-14T06:30:11.761Z,11.50
2018-09-14T06:32:46.040Z,11.60
2018-09-14T06:35:20.465Z,11.60
2018-09-14T06:37:54.695Z,12.00
2018-09-14T06:40:29.058Z,12.40
2018-09-14T06:43:03.505Z,12.90
2018-09-14T06:45:37.812Z,13.20
2018-09-14T06:48:12.264Z,13.60
2018-09-14T06:50:46.541Z,13.90
2018-09-14T06:53:20.897Z,14.30
2018-09-14T06:55:55.167Z,14.60
2018-09-14T06:58:29.460Z,14.20
2018-09-14T07:01:03.638Z,14.10
2018-09-14T07:03:37.964Z,13.60
2018-09-14T07:06:12.236Z,13.50
2018-09-14T07:08:46.410Z,14.10
2018-09-14T07:11:22.586Z,14.30
2018-09-14T07:13:56.820Z,14.10
2018-09-14T07:16:31.219Z,14.00
2018-09-14T07:19:05.548Z,14.40
2018-09-14T07:21:39.863Z,14.50
2018-09-14T07:24:14.042Z,14.30
2018-09-14T07:26:48.403Z,14.30
2018-09-14T07:29:22.810Z,14.20
2018-09-14T07:31:57.181Z,14.30
2018-09-14T07:34:31.556Z,14.50
2018-09-14T07:37:06.184Z,14.70
2018-09-14T07:39:40.475Z,15.00
2018-09-14T07:42:14.727Z,15.50
2018-09-14T07:44:49.019Z,16.00
2018-09-14T07:47:23.259Z,16.20
2018-09-14T07:49:57.544Z,16.40
2018-09-14T07:52:31.903Z,15.90
2018-09-14T07:55:06.284Z,16.00
2018-09-14T07:57:40.483Z,16.10
2018-09-14T08:00:14.703Z,15.70
2018-09-14T08:02:48.912Z,16.30
2018-09-14T08:05:23.210Z,17.40
2018-09-14T08:07:57.603Z,17.60
2018-09-14T08:10:31.832Z,17.20
2018-09-14T08:13:06.344Z,15.80
2018-09-14T08:15:40.648Z,16.90
2018-09-14T08:18:14.939Z,17.60
2018-09-14T08:20:49.188Z,18.30
2018-09-14T08:23:23.368Z,19.00
2018-09-14T08:25:57.699Z,18.60
2018-09-14T08:28:31.906Z,18.50
2018-09-14T08:31:06.494Z,18.60
2018-09-14T08:33:40.776Z,18.40
2018-09-14T08:36:15.068Z,18.20
2018-09-14T08:38:49.376Z,18.90
2018-09-14T08:41:23.765Z,19.10
2018-09-14T08:43:58.076Z,19.70
2018-09-14T08:46:32.395Z,20.00
2018-09-14T08:49:06.556Z,20.00
2018-09-14T08:51:40.852Z,19.60
2018-09-14T08:54:15.040Z,19.10
2018-09-14T08:56:49.474Z,18.70
2018-09-14T08:59:23.782Z,19.30
2018-09-14T09:01:57.948Z,19.80
2018-09-14T09:04:32.205Z,19.50
2018-09-14T09:07:06.537Z,18.80
2018-09-14T09:09:40.840Z,19.50
2018-09-14T09:12:15.164Z,19.80
2018-09-14T09:14:49.368Z,20.40
2018-09-14T09:17:24.097Z,20.40
2018-09-14T09:19:58.304Z,19.50
2018-09-14T09:22:32.672Z,19.50
2018-09-14T09:25:06.895Z,20.20
2018-09-14T09:27:41.267Z,20.00
2018-09-14T09:30:15.664Z,20.00
2018-09-14T09:32:49.972Z,20.70
2018-09-14T09:35:24.369Z,20.60
2018-09-14T09:37:58.691Z,20.40
2018-09-14T09:40:33.000Z,19.60
2018-09-14T09:43:07.326Z,19.70
2018-09-14T09:45:41.619Z,20.30
2018-09-14T09:48:15.855Z,19.90
2018-09-14T09:50:50.275Z,19.40
2018-09-14T09:53:24.387Z,19.20
2018-09-14T09:55:58.802Z,19.80
2018-09-14T09:58:33.044Z,19.90
2018-09-14T10:01:12.819Z,20.50
2018-09-14T10:03:52.512Z,20.80
2018-09-14T10:06:27.587Z,21.00
2018-09-14T10:09:01.853Z,20.80
2018-09-14T10:11:54.116Z,20.40
2018-09-14T10:14:28.444Z,20.40
2018-09-14T10:17:02.797Z,20.80
2018-09-14T10:19:37.597Z,20.80
2018-09-14T10:22:11.892Z,21.30
2018-09-14T10:24:46.254Z,20.80
2018-09-14T10:27:20.530Z,21.20
2018-09-14T10:29:54.823Z,20.90
2018-09-14T10:32:29.123Z,20.40
2018-09-14T10:35:03.515Z,20.00
2018-09-14T10:37:38.076Z,20.40
2018-09-14T10:40:12.413Z,20.40
2018-09-14T10:42:46.747Z,20.50
2018-09-14T10:45:21.106Z,20.90
2018-09-14T10:47:55.300Z,21.10
2018-09-14T10:50:29.544Z,21.40
2018-09-14T10:53:03.912Z,21.30
2018-09-14T10:55:38.336Z,21.50
2018-09-14T10:58:12.803Z,21.60
2018-09-14T11:00:47.197Z,21.70
2018-09-14T11:03:21.384Z,21.60
2018-09-14T11:05:56.316Z,21.60
2018-09-14T11:08:31.585Z,21.40
2018-09-14T11:11:09.301Z,20.80
2018-09-14T11:13:43.705Z,20.80
2018-09-14T11:16:18.004Z,20.70
2018-09-14T11:18:52.443Z,20.60
2018-09-14T11:21:26.812Z,21.00
2018-09-14T11:24:01.313Z,21.10
2018-09-14T11:26:35.507Z,21.50
2018-09-14T11:29:09.775Z,21.60
2018-09-14T11:31:44.084Z,21.70
2018-09-14T11:34:18.436Z,21.90
2018-09-14T11:36:52.812Z,22.10
2018-09-14T11:39:27.252Z,21.40
2018-09-14T11:42:01.472Z,21.40
2018-09-14T11:44:35.795Z,21.30
2018-09-14T11:47:10.119Z,21.60
2018-09-14T11:49:44.428Z,22.00
2018-09-14T11:52:18.759Z,22.00
2018-09-14T11:54:53.139Z,21.60
2018-09-14T11:57:27.456Z,21.60
2018-09-14T12:00:01.832Z,21.60
2018-09-14T12:02:36.133Z,21.40
2018-09-14T12:05:10.481Z,21.50
2018-09-14T12:07:44.748Z,21.50
2018-09-14T12:10:19.160Z,20.80
2018-09-14T12:12:53.590Z,20.70
2018-09-14T12:15:27.923Z,20.80
2018-09-14T12:18:02.207Z,20.90
2018-09-14T12:20:36.513Z,21.30
2018-09-14T12:23:10.908Z,20.90
2018-09-14T12:25:45.196Z,21.00
2018-09-14T12:28:19.475Z,21.00
2018-09-14T12:30:53.771Z,20.80
2018-09-14T12:33:28.104Z,20.70
2018-09-14T12:36:02.291Z,21.10
2018-09-14T12:38:36.644Z,21.10
2018-09-14T12:41:10.972Z,21.30
2018-09-14T12:43:45.303Z,21.40
2018-09-14T12:46:19.581Z,21.30
2018-09-14T12:48:53.848Z,21.40
2018-09-14T12:51:28.452Z,21.50
2018-09-14T12:54:02.840Z,21.40
2018-09-14T12:56:37.156Z,21.60
2018-09-14T12:59:11.525Z,21.60
2018-09-14T13:01:45.817Z,21.40
2018-09-14T13:04:20.168Z,21.30
2018-09-14T13:06:54.460Z,21.40
2018-09-14T13:09:28.804Z,21.50
2018-09-14T13:12:03.128Z,21.60
2018-09-14T13:14:37.520Z,21.60
2018-09-14T13:17:12.135Z,21.70
2018-09-14T13:19:46.476Z,21.50
2018-09-14T13:22:20.844Z,21.60
2018-09-14T13:24:55.156Z,21.50
2018-09-14T13:27:29.392Z,21.40
2018-09-14T13:30:03.627Z,21.40
2018-09-14T13:32:38.355Z,21.60
2018-09-14T13:35:12.577Z,21.50
2018-09-14T13:37:47.060Z,21.40
2018-09-14T13:40:21.740Z,21.40
2018-09-14T13:42:56.036Z,21.40
2018-09-14T13:45:30.248Z,21.50
2018-09-14T13:48:16.364Z,21.40
2018-09-14T13:50:50.764Z,21.50
2018-09-14T13:53:25.102Z,21.50
2018-09-14T13:55:59.413Z,21.40
2018-09-14T13:58:38.020Z,21.60
2018-09-14T14:01:12.354Z,21.90
2018-09-14T14:03:46.764Z,21.60
2018-09-14T14:06:20.992Z,21.40
2018-09-14T14:08:55.204Z,21.20
2018-09-14T14:11:29.388Z,21.50
2018-09-14T14:14:03.708Z,21.70
2018-09-14T14:16:38.000Z,21.80
2018-09-14T14:19:12.384Z,21.60
2018-09-14T14:21:46.768Z,21.40
2018-09-14T14:24:20.951Z,21.30
2018-09-14T14:26:55.144Z,21.30
2018-09-14T14:29:29.571Z,21.20
2018-09-14T14:32:03.796Z,21.30
2018-09-14T14:34:38.151Z,21.40
2018-09-14T14:37:12.616Z,21.40
2018-09-14T14:39:47.429Z,21.40
2018-09-14T14:42:21.672Z,21.40
2018-09-14T14:44:56.367Z,21.30
2018-09-14T14:47:30.768Z,21.10
2018-09-14T14:50:05.217Z,21.00
2018-09-14T14:52:39.555Z,21.10
2018-09-14T14:55:14.139Z,21.30
2018-09-14T14:57:48.453Z,21.40
2018-09-14T15:00:22.812Z,21.20
2018-09-14T15:02:57.170Z,21.20
2018-09-14T15:05:31.381Z,21.40
2018-09-14T15:08:05.728Z,21.40
2018-09-14T15:10:40.181Z,21.20
2018-09-14T15:13:14.432Z,21.10
2018-09-14T15:15:48.924Z,21.10
2018-09-14T15:18:23.152Z,21.10
2018-09-14T15:20:57.362Z,21.10
2018-09-14T15:23:31.685Z,21.20
2018-09-14T15:26:06.051Z,21.20
2018-09-14T15:28:40.380Z,21.30
2018-09-14T15:31:14.757Z,21.30
2018-09-14T15:33:48.995Z,21.10
2018-09-14T15:36:23.180Z,21.20
2018-09-14T15:38:57.639Z,21.20
2018-09-14T15:41:31.939Z,21.30
2018-09-14T15:44:06.181Z,21.10
2018-09-14T15:46:40.479Z,21.00
2018-09-14T15:49:14.791Z,20.90
2018-09-14T15:51:48.932Z,21.10
2018-09-14T15:54:23.218Z,21.20
2018-09-14T15:56:57.603Z,21.20
2018-09-14T15:59:31.960Z,21.20
2018-09-14T16:02:06.232Z,21.20
2018-09-14T16:04:40.452Z,21.10
2018-09-14T16:07:14.776Z,21.30
2018-09-14T16:09:49.087Z,21.30
2018-09-14T16:12:23.407Z,21.20
2018-09-14T16:14:57.692Z,20.90
2018-09-14T16:17:32.036Z,20.80
2018-09-14T16:20:06.560Z,21.00
2018-09-14T16:22:41.008Z,21.10
2018-09-14T16:25:15.187Z,20.70
2018-09-14T16:27:49.464Z,20.80
2018-09-14T16:30:23.790Z,20.60
2018-09-14T16:32:58.090Z,20.80
2018-09-14T16:35:32.376Z,20.90
2018-09-14T16:38:06.692Z,20.90
2018-09-14T16:40:41.109Z,20.80
2018-09-14T16:43:15.388Z,20.70
2018-09-14T16:45:49.602Z,20.80
2018-09-14T16:48:23.981Z,21.00
2018-09-14T16:50:58.468Z,21.10
2018-09-14T16:53:32.688Z,20.90
2018-09-14T16:56:07.188Z,20.90
2018-09-14T16:58:41.489Z,20.70
2018-09-14T17:01:15.790Z,20.80
2018-09-14T17:03:50.028Z,20.60
2018-09-14T17:06:24.323Z,20.70
2018-09-14T17:08:58.667Z,20.50
2018-09-14T17:11:33.021Z,20.50
2018-09-14T17:14:07.852Z,20.30
2018-09-14T17:16:42.192Z,20.40
2018-09-14T17:19:16.664Z,20.30
2018-09-14T17:21:51.363Z,20.40
2018-09-14T17:24:25.779Z,20.20
2018-09-14T17:27:00.061Z,20.00
2018-09-14T17:29:34.508Z,19.90
2018-09-14T17:32:08.788Z,19.90
2018-09-14T17:34:43.108Z,19.90
2018-09-14T17:37:17.404Z,19.80
2018-09-14T17:39:51.711Z,19.80
2018-09-14T17:42:26.032Z,19.70
2018-09-14T17:45:00.204Z,19.80
2018-09-14T17:47:34.416Z,20.00
2018-09-14T17:50:08.756Z,19.90
2018-09-14T17:52:43.440Z,19.90
2018-09-14T17:55:17.656Z,19.90
2018-09-14T17:57:51.902Z,19.70
2018-09-14T18:00:26.284Z,19.60
2018-09-14T18:03:03.424Z,19.50
2018-09-14T18:05:37.776Z,19.40
2018-09-14T18:08:11.996Z,19.40
2018-09-14T18:10:46.236Z,19.20
2018-09-14T18:13:20.628Z,19.20
2018-09-14T18:15:54.876Z,19.00
2018-09-14T18:18:29.693Z,18.90
2018-09-14T18:21:04.093Z,18.80
2018-09-14T18:23:38.524Z,18.80
2018-09-14T18:26:12.864Z,18.80
2018-09-14T18:28:47.456Z,18.70
2018-09-14T18:31:21.712Z,18.70
2018-09-14T18:33:56.072Z,18.60
2018-09-14T18:36:30.620Z,18.60
2018-09-14T18:39:08.101Z,18.50
2018-09-14T18:41:42.479Z,18.40
2018-09-14T18:44:16.677Z,18.40
2018-09-14T18:46:50.999Z,18.30
2018-09-14T18:49:25.312Z,18.30
2018-09-14T18:51:59.596Z,18.30
2018-09-14T18:54:33.935Z,18.20
2018-09-14T18:57:08.252Z,18.20
2018-09-14T18:59:42.629Z,18.20
2018-09-14T19:02:16.959Z,18.10
2018-09-14T19:04:51.283Z,18.20
2018-09-14T19:07:25.593Z,18.20
2018-09-14T19:09:59.891Z,18.30
2018-09-14T19:12:34.184Z,18.30
2018-09-14T19:15:08.479Z,18.20
2018-09-14T19:17:42.809Z,18.10
2018-09-14T19:20:17.120Z,18.20
2018-09-14T19:22:51.376Z,18.30
2018-09-14T19:25:25.616Z,18.20
2018-09-14T19:27:59.892Z,18.20
2018-09-14T19:30:34.240Z,18.20
2018-09-14T19:33:08.500Z,18.10
2018-09-14T19:35:42.681Z,18.10
2018-09-14T19:38:17.075Z,18.10
2018-09-14T19:40:51.604Z,18.10
2018-09-14T19:43:25.855Z,18.10
2018-09-14T19:46:00.193Z,18.10
2018-09-14T19:48:34.580Z,18.00
2018-09-14T19:51:09.048Z,17.80
2018-09-14T19:53:43.490Z,17.80
2018-09-14T19:56:17.800Z,17.80
2018-09-14T19:58:52.192Z,17.90
2018-09-14T20:01:26.547Z,17.90
2018-09-14T20:04:00.828Z,17.80
2018-09-14T20:06:35.077Z,17.80
2018-09-14T20:09:11.095Z,17.70
2018-09-14T20:11:45.343Z,17.80
2018-09-14T20:14:19.560Z,17.80
2018-09-14T20:16:53.818Z,17.90
2018-09-14T20:19:28.247Z,17.90
2018-09-14T20:22:02.512Z,17.90
2018-09-14T20:24:36.968Z,17.90
2018-09-14T20:27:11.380Z,17.90
2018-09-14T20:29:45.722Z,17.80
2018-09-14T20:32:20.012Z,17.80
2018-09-14T20:34:54.396Z,17.80
2018-09-14T20:37:28.727Z,17.90
2018-09-14T20:40:03.097Z,17.90
2018-09-14T20:42:37.300Z,17.90
2018-09-14T20:45:11.733Z,17.90
2018-09-14T20:47:45.924Z,17.90
2018-09-14T20:50:20.206Z,17.90
2018-09-14T20:52:54.520Z,17.80
2018-09-14T20:55:28.791Z,17.80
2018-09-14T20:58:03.163Z,17.80
2018-09-14T21:00:37.368Z,17.70
2018-09-14T21:03:11.688Z,17.70
2018-09-14T21:05:46.036Z,17.80
2018-09-14T21:08:20.228Z,17.70
2018-09-14T21:10:54.560Z,17.70
2018-09-14T21:13:28.775Z,17.80
2018-09-14T21:16:03.188Z,17.80
2018-09-14T21:18:37.379Z,17.60
2018-09-14T21:21:11.605Z,17.60
2018-09-14T21:23:46.055Z,17.70
2018-09-14T21:26:20.363Z,17.60
2018-09-14T21:28:54.967Z,17.60
2018-09-14T21:31:29.311Z,17.60
2018-09-14T21:34:03.683Z,17.60
2018-09-14T21:36:38.108Z,17.50
2018-09-14T21:39:12.869Z,17.50
2018-09-14T21:41:47.251Z,17.60
2018-09-14T21:44:21.543Z,17.60
2018-09-14T21:46:56.012Z,17.60
2018-09-14T21:49:30.277Z,17.70
2018-09-14T21:52:04.627Z,17.80
2018-09-14T21:54:38.944Z,17.50
2018-09-14T21:57:13.189Z,17.60
2018-09-14T21:59:47.468Z,17.50
2018-09-14T22:02:21.735Z,17.50
2018-09-14T22:04:56.060Z,17.50
2018-09-14T22:07:30.407Z,17.50
2018-09-14T22:10:04.749Z,17.60
2018-09-14T22:12:39.044Z,17.60
2018-09-14T22:15:13.436Z,17.60
2018-09-14T22:17:47.659Z,17.60
2018-09-14T22:20:22.120Z,17.60
2018-09-14T22:22:56.560Z,17.60
2018-09-14T22:25:30.960Z,17.50
2018-09-14T22:28:05.397Z,17.50
2018-09-14T22:30:39.614Z,17.50
2018-09-14T22:33:13.933Z,17.40
2018-09-14T22:35:48.088Z,17.50
2018-09-14T22:38:22.396Z,17.40
2018-09-14T22:40:56.781Z,17.30
2018-09-14T22:43:30.976Z,17.30
2018-09-14T22:46:05.228Z,17.20
2018-09-14T22:48:39.477Z,17.00
2018-09-14T22:51:13.876Z,17.00
2018-09-14T22:53:48.239Z,17.00
2018-09-14T22:56:22.688Z,16.90
2018-09-14T22:58:57.009Z,16.80
2018-09-14T23:01:31.291Z,16.90
2018-09-14T23:04:05.492Z,16.90
2018-09-14T23:06:39.775Z,16.80
2018-09-14T23:09:14.098Z,16.80
2018-09-14T23:11:48.320Z,16.70
2018-09-14T23:14:22.628Z,16.70
2018-09-14T23:16:56.871Z,16.60
2018-09-14T23:19:31.275Z,16.60
2018-09-14T23:22:05.564Z,16.50
2018-09-14T23:24:39.881Z,16.40
2018-09-14T23:27:14.238Z,16.20
2018-09-14T23:29:48.415Z,16.30
2018-09-14T23:32:22.698Z,16.20
2018-09-14T23:34:57.056Z,16.20
2018-09-14T23:37:31.387Z,16.20
2018-09-14T23:40:05.780Z,16.30
2018-09-14T23:42:40.068Z,16.20
2018-09-14T23:45:14.448Z,16.20
2018-09-14T23:47:48.723Z,16.10
2018-09-14T23:50:22.940Z,16.10
2018-09-14T23:52:57.259Z,16.00
2018-09-14T23:55:31.501Z,16.10
2018-09-14T23:58:05.984Z,16.10
